Time;durP1;ratioP1;P1;durP2;ratioP2;P2;SDS_P1;SDS_P2;PMS_P1;PMS_P2;Temp;Humidity;BMP_temperature;BMP_pressure;BME280_temperature;BME280_humidity;BME280_pressure;Samples;Min_cycle;Max_cycle;Signal;HPM_P1;HPM_P2
2023/04/03 00:01:38;;;;;;;1.10;0.57;;;3.30;99.90;;;;;;4978836;28;20295;-68
2023/04/03 00:04:07;;;;;;;2.53;0.40;;;3.30;99.90;;;;;;4984926;28;20049;-68
2023/04/03 00:06:33;;;;;;;1.67;0.40;;;3.30;99.90;;;;;;4978199;28;20041;-68
2023/04/03 00:08:59;;;;;;;1.33;0.68;;;3.30;99.90;;;;;;4966868;28;20050;-68
2023/04/03 00:11:25;;;;;;;2.30;0.47;;;3.20;99.90;;;;;;4992306;28;20108;-68
2023/04/03 00:13:51;;;;;;;0.52;0.20;;;3.20;99.90;;;;;;4980545;28;20183;-68
2023/04/03 00:16:16;;;;;;;1.02;0.32;;;3.20;99.90;;;;;;4986580;28;20509;-68
2023/04/03 00:18:43;;;;;;;2.27;0.73;;;3.20;99.90;;;;;;4983010;28;20196;-68
2023/04/03 00:21:12;;;;;;;1.67;0.32;;;3.20;99.90;;;;;;4983130;28;20661;-68
2023/04/03 00:23:38;;;;;;;1.25;0.50;;;3.20;99.90;;;;;;4983179;28;20077;-68
2023/04/03 00:26:04;;;;;;;2.10;0.37;;;3.20;99.90;;;;;;4996193;28;20357;-68
2023/04/03 00:28:29;;;;;;;1.97;0.93;;;3.20;99.90;;;;;;4979106;28;20531;-68
2023/04/03 00:30:55;;;;;;;0.63;0.27;;;3.20;99.90;;;;;;4983788;28;20491;-69
2023/04/03 00:33:24;;;;;;;1.47;0.57;;;3.20;99.90;;;;;;4978662;28;20046;-69
2023/04/03 00:35:50;;;;;;;1.70;0.35;;;3.10;99.90;;;;;;4963162;28;20099;-68
2023/04/03 00:38:16;;;;;;;0.87;0.40;;;3.20;99.90;;;;;;4975373;28;20046;-68
2023/04/03 00:40:44;;;;;;;3.30;1.30;;;3.10;99.90;;;;;;4993546;28;20046;-68
2023/04/03 00:43:16;;;;;;;1.42;0.35;;;3.10;99.90;;;;;;4982278;28;20064;-68
2023/04/03 00:45:44;;;;;;;4.53;0.75;;;3.10;99.90;;;;;;4977994;28;20061;-68
2023/04/03 00:48:15;;;;;;;1.27;0.43;;;3.10;99.90;;;;;;4965028;28;20042;-68
2023/04/03 00:50:43;;;;;;;1.42;0.45;;;3.10;99.90;;;;;;4983331;28;20081;-68
2023/04/03 00:53:16;;;;;;;2.92;0.20;;;3.10;99.90;;;;;;4980350;28;20042;-68
2023/04/03 00:55:43;;;;;;;2.97;0.57;;;3.00;99.90;;;;;;4977144;28;20054;-68
2023/04/03 00:58:10;;;;;;;1.35;0.52;;;3.00;99.90;;;;;;4981987;28;20057;-68
2023/04/03 01:00:40;;;;;;;1.77;0.40;;;3.00;99.90;;;;;;4960712;28;20128;-68
2023/04/03 01:03:05;;;;;;;3.25;1.10;;;2.90;99.90;;;;;;4975398;28;20119;-68
2023/04/03 01:05:32;;;;;;;1.87;0.73;;;2.90;99.90;;;;;;4980461;28;20411;-68
2023/04/03 01:07:58;;;;;;;1.45;0.40;;;2.90;99.90;;;;;;4974923;28;20042;-69
2023/04/03 01:10:27;;;;;;;1.08;0.43;;;2.80;99.90;;;;;;4975536;28;20132;-68
2023/04/03 01:12:53;;;;;;;2.53;0.40;;;2.80;99.90;;;;;;4966266;28;20116;-68
2023/04/03 01:15:25;;;;;;;1.20;0.30;;;2.90;99.90;;;;;;4975968;28;20041;-68
2023/04/03 01:17:58;;;;;;;1.23;0.60;;;2.80;99.90;;;;;;4966265;28;20164;-68
2023/04/03 01:20:32;;;;;;;2.85;0.60;;;2.70;99.90;;;;;;4999908;28;20049;-68
2023/04/03 01:23:13;;;;;;;6.13;0.90;;;2.80;99.90;;;;;;4979072;28;20420;-68
2023/04/03 01:25:40;;;;;;;1.20;0.40;;;2.70;99.90;;;;;;4996158;28;20046;-67
2023/04/03 01:28:09;;;;;;;3.72;0.73;;;2.60;99.90;;;;;;4979501;28;20129;-68
2023/04/03 01:30:45;;;;;;;2.42;0.40;;;2.60;99.90;;;;;;4992201;28;20037;-68
2023/04/03 01:33:11;;;;;;;2.30;0.40;;;2.60;99.90;;;;;;4993174;28;20056;-68
2023/04/03 01:35:37;;;;;;;1.30;0.40;;;2.60;99.90;;;;;;4981893;28;20543;-68
2023/04/03 01:38:03;;;;;;;2.17;0.40;;;2.50;99.90;;;;;;4977081;28;20042;-68
2023/04/03 01:40:31;;;;;;;2.83;0.30;;;2.50;99.90;;;;;;4983364;28;20451;-68
2023/04/03 01:42:57;;;;;;;1.52;0.45;;;2.50;99.90;;;;;;4978032;28;20080;-68
2023/04/03 01:45:23;;;;;;;2.13;0.67;;;2.50;99.90;;;;;;4995949;28;20074;-68
2023/04/03 01:47:48;;;;;;;3.57;0.67;;;2.40;99.90;;;;;;4974987;28;20077;-68
2023/04/03 01:50:14;;;;;;;2.67;0.60;;;2.40;99.90;;;;;;4979137;28;20226;-68
2023/04/03 01:52:40;;;;;;;2.57;0.60;;;2.40;99.90;;;;;;4972300;28;20050;-68
2023/04/03 01:55:06;;;;;;;0.50;0.30;;;2.40;99.90;;;;;;4982076;28;20046;-68
2023/04/03 01:57:31;;;;;;;1.92;0.57;;;2.40;99.90;;;;;;4977597;28;20108;-68
2023/04/03 01:59:57;;;;;;;2.63;1.10;;;2.30;99.90;;;;;;4994304;28;20081;-68
2023/04/03 02:02:23;;;;;;;2.87;0.60;;;2.30;99.90;;;;;;4991952;28;20149;-68
2023/04/03 02:04:48;;;;;;;3.57;0.57;;;2.30;99.90;;;;;;4997029;28;20135;-69
2023/04/03 02:07:14;;;;;;;1.00;0.57;;;2.30;99.90;;;;;;4969917;28;20050;-68
2023/04/03 02:09:40;;;;;;;2.00;0.60;;;2.20;99.90;;;;;;4975239;28;20522;-69
2023/04/03 02:12:06;;;;;;;4.23;0.70;;;2.20;99.90;;;;;;4988773;28;20053;-68
2023/04/03 02:14:31;;;;;;;1.57;0.83;;;2.20;99.90;;;;;;4987637;28;20298;-68
2023/04/03 02:16:57;;;;;;;1.83;0.60;;;2.20;99.90;;;;;;4982846;28;20042;-68
2023/04/03 02:19:23;;;;;;;1.87;0.60;;;2.10;99.90;;;;;;5003294;28;20638;-68
2023/04/03 02:21:49;;;;;;;7.72;1.17;;;2.10;99.90;;;;;;4984449;28;20045;-68
2023/04/03 02:24:15;;;;;;;1.60;0.77;;;2.20;99.90;;;;;;5002245;28;20629;-68
2023/04/03 02:26:40;;;;;;;6.37;2.40;;;2.10;99.90;;;;;;4969716;28;20042;-68
2023/04/03 02:29:06;;;;;;;5.70;2.53;;;2.10;99.90;;;;;;4986504;28;20044;-68
2023/04/03 02:31:32;;;;;;;2.30;1.33;;;2.10;99.90;;;;;;4985784;28;20053;-68
2023/04/03 02:33:57;;;;;;;3.00;1.07;;;2.10;99.90;;;;;;5002947;28;20307;-68
2023/04/03 02:36:23;;;;;;;4.23;0.63;;;2.10;99.90;;;;;;5001407;28;20046;-68
2023/04/03 02:38:49;;;;;;;2.97;0.80;;;2.00;99.90;;;;;;4985769;28;20511;-68
2023/04/03 02:41:14;;;;;;;4.97;0.70;;;2.00;99.90;;;;;;4979735;28;20060;-68
2023/04/03 02:43:40;;;;;;;2.37;0.77;;;2.00;99.90;;;;;;4991291;28;20034;-67
2023/04/03 02:46:06;;;;;;;2.97;0.67;;;2.00;99.90;;;;;;4969001;28;20042;-69
2023/04/03 02:48:32;;;;;;;1.85;0.63;;;2.00;99.90;;;;;;4986910;28;20033;-69
2023/04/03 02:50:58;;;;;;;2.73;0.70;;;2.00;99.90;;;;;;4985211;28;20060;-68
2023/04/03 02:53:23;;;;;;;1.73;1.00;;;1.90;99.90;;;;;;4979557;28;20141;-69
2023/04/03 02:55:49;;;;;;;2.77;0.80;;;1.90;99.90;;;;;;4998868;28;20507;-68
2023/04/03 02:58:15;;;;;;;4.10;1.33;;;1.90;99.90;;;;;;4980997;28;20034;-68
2023/04/03 03:00:41;;;;;;;2.80;0.80;;;1.90;99.90;;;;;;4996805;28;20057;-68
2023/04/03 03:03:10;;;;;;;2.83;1.00;;;1.90;99.90;;;;;;4974543;28;20078;-69
2023/04/03 03:05:36;;;;;;;4.53;1.20;;;1.90;99.90;;;;;;4978327;28;20072;-68
2023/04/03 03:08:01;;;;;;;2.17;0.83;;;1.80;99.90;;;;;;4987385;28;20736;-68
2023/04/03 03:10:27;;;;;;;2.92;1.00;;;1.80;99.90;;;;;;4973792;28;20535;-68
2023/04/03 03:12:53;;;;;;;3.37;1.00;;;1.80;99.90;;;;;;4985323;28;20074;-68
2023/04/03 03:15:19;;;;;;;2.50;0.83;;;1.80;99.90;;;;;;4995110;28;20050;-68
2023/04/03 03:17:45;;;;;;;3.13;0.80;;;1.80;99.90;;;;;;4978249;28;20269;-68
2023/04/03 03:20:12;;;;;;;2.85;0.93;;;1.80;99.90;;;;;;4980246;28;20046;-68
2023/04/03 03:22:38;;;;;;;4.32;1.13;;;1.70;99.90;;;;;;4995209;28;20138;-68
2023/04/03 03:25:07;;;;;;;5.07;0.90;;;1.70;99.90;;;;;;4978214;28;20124;-68
2023/04/03 03:27:33;;;;;;;3.42;0.77;;;1.70;99.90;;;;;;4980545;28;20129;-68
2023/04/03 03:29:58;;;;;;;2.43;0.67;;;1.70;99.90;;;;;;4981788;28;20050;-68
2023/04/03 03:32:24;;;;;;;2.07;0.77;;;1.70;99.90;;;;;;4996091;28;20139;-68
2023/04/03 03:34:49;;;;;;;6.00;1.00;;;1.70;99.90;;;;;;4982193;28;20041;-68
2023/04/03 03:37:17;;;;;;;5.00;1.07;;;1.70;99.90;;;;;;4978828;28;20069;-68
2023/04/03 03:39:43;;;;;;;4.43;1.15;;;1.60;99.90;;;;;;4974445;28;20053;-68
2023/04/03 03:42:09;;;;;;;3.87;0.60;;;1.60;99.90;;;;;;4974483;28;20037;-68
2023/04/03 03:44:38;;;;;;;3.47;1.20;;;1.60;99.90;;;;;;5003608;28;20096;-68
2023/04/03 03:47:05;;;;;;;2.83;1.03;;;1.60;99.90;;;;;;4985502;28;20069;-68
2023/04/03 03:49:31;;;;;;;2.67;0.95;;;1.50;99.90;;;;;;4981038;28;20044;-68
2023/04/03 03:51:57;;;;;;;4.87;0.93;;;1.50;99.90;;;;;;4997587;28;20035;-69
2023/04/03 03:54:22;;;;;;;2.83;1.03;;;1.50;99.90;;;;;;4981058;28;20087;-68
2023/04/03 03:56:48;;;;;;;1.97;1.07;;;1.50;99.90;;;;;;4981927;28;20037;-68
2023/04/03 03:59:14;;;;;;;3.87;1.20;;;1.50;99.90;;;;;;4980677;28;20369;-68
2023/04/03 04:01:39;;;;;;;5.70;1.38;;;1.50;99.90;;;;;;4970241;28;20392;-68
2023/04/03 04:04:05;;;;;;;4.00;1.00;;;1.50;99.90;;;;;;4984278;28;20042;-68
2023/04/03 04:06:31;;;;;;;4.80;0.93;;;1.40;99.90;;;;;;4985188;28;20042;-68
2023/04/03 04:08:56;;;;;;;3.13;0.83;;;1.40;99.90;;;;;;4981443;28;20042;-69
2023/04/03 04:11:22;;;;;;;1.60;0.80;;;1.30;99.90;;;;;;4979477;28;20081;-68
2023/04/03 04:13:47;;;;;;;1.47;0.77;;;1.30;99.90;;;;;;4976359;28;20058;-68
2023/04/03 04:16:13;;;;;;;3.90;1.30;;;1.30;99.90;;;;;;4978424;28;20078;-68
2023/04/03 04:18:39;;;;;;;7.83;1.23;;;1.30;99.90;;;;;;4980736;28;20057;-68
2023/04/03 04:21:08;;;;;;;3.87;1.20;;;1.20;99.90;;;;;;4979202;28;20054;-68
2023/04/03 04:23:33;;;;;;;4.93;1.00;;;1.20;99.90;;;;;;4995755;28;20048;-68
2023/04/03 04:26:02;;;;;;;2.47;1.70;;;1.10;99.90;;;;;;4994044;28;20038;-68
2023/04/03 04:28:27;;;;;;;3.65;1.20;;;1.10;99.90;;;;;;4966604;28;20034;-67
2023/04/03 04:30:53;;;;;;;5.20;1.43;;;1.10;99.90;;;;;;4975575;28;20053;-68
2023/04/03 04:33:18;;;;;;;4.20;1.00;;;1.00;99.90;;;;;;4974209;28;20042;-68
2023/04/03 04:35:46;;;;;;;3.47;1.33;;;1.00;99.90;;;;;;4979564;28;20516;-68
2023/04/03 04:38:12;;;;;;;10.73;2.25;;;1.00;99.90;;;;;;4979172;28;20454;-68
2023/04/03 04:40:37;;;;;;;2.40;1.10;;;1.00;99.90;;;;;;4956644;28;20045;-68
2023/04/03 04:43:03;;;;;;;7.10;1.20;;;1.00;99.90;;;;;;4994291;28;20038;-68
2023/04/03 04:45:29;;;;;;;2.03;0.90;;;1.00;99.90;;;;;;4993724;28;20060;-68
2023/04/03 04:47:57;;;;;;;3.53;1.30;;;1.00;99.90;;;;;;4986445;28;20148;-68
2023/04/03 04:50:23;;;;;;;5.32;1.00;;;1.00;99.90;;;;;;4971648;28;20056;-68
2023/04/03 04:52:49;;;;;;;2.77;1.27;;;1.00;99.90;;;;;;4967677;28;20260;-68
2023/04/03 04:55:15;;;;;;;4.57;1.10;;;1.00;99.90;;;;;;4966883;28;20049;-68
2023/04/03 04:57:40;;;;;;;2.77;1.10;;;1.00;99.90;;;;;;4976312;28;20042;-68
2023/04/03 05:00:06;;;;;;;2.87;1.13;;;1.00;99.90;;;;;;4975081;28;20497;-68
2023/04/03 05:02:32;;;;;;;5.45;1.13;;;1.00;99.90;;;;;;4998985;28;20049;-68
2023/04/03 05:04:58;;;;;;;2.92;1.30;;;0.90;99.90;;;;;;5000264;28;20054;-68
2023/04/03 05:07:24;;;;;;;6.73;1.20;;;0.90;99.90;;;;;;4977257;28;20384;-67
2023/04/03 05:09:50;;;;;;;4.00;1.40;;;0.90;99.90;;;;;;4980298;28;20371;-68
2023/04/03 05:12:16;;;;;;;3.03;0.97;;;0.90;99.90;;;;;;4981094;28;20053;-68
2023/04/03 05:14:42;;;;;;;2.65;0.93;;;0.90;99.90;;;;;;4998297;28;20107;-68
2023/04/03 05:17:08;;;;;;;4.97;1.10;;;0.80;99.90;;;;;;4980169;28;20145;-67
2023/04/03 05:19:33;;;;;;;2.17;1.03;;;0.80;99.90;;;;;;4979975;28;20046;-68
2023/04/03 05:22:02;;;;;;;2.23;1.20;;;0.80;99.90;;;;;;4984700;28;20208;-68
2023/04/03 05:24:27;;;;;;;4.30;1.40;;;0.80;99.90;;;;;;4982464;28;20096;-68
2023/04/03 05:26:53;;;;;;;6.83;1.40;;;0.80;99.90;;;;;;4997670;28;20499;-68
2023/04/03 05:29:19;;;;;;;5.53;1.40;;;0.80;99.90;;;;;;4979322;28;20091;-68
2023/04/03 05:31:48;;;;;;;2.77;1.17;;;0.70;99.90;;;;;;4984861;28;20041;-69
2023/04/03 05:34:14;;;;;;;2.90;1.10;;;0.70;99.90;;;;;;4962033;28;20070;-67
2023/04/03 05:36:40;;;;;;;5.05;1.20;;;0.70;99.90;;;;;;4990351;28;20112;-68
2023/04/03 05:39:06;;;;;;;4.47;1.20;;;0.80;99.90;;;;;;4999156;28;20599;-67
2023/04/03 05:41:31;;;;;;;3.17;1.13;;;0.80;99.90;;;;;;4979312;28;20076;-76
2023/04/03 05:43:57;;;;;;;5.83;1.23;;;0.80;99.90;;;;;;4981383;28;20042;-68
2023/04/03 05:46:22;;;;;;;3.60;1.10;;;0.90;99.90;;;;;;4994773;28;20052;-67
2023/04/03 05:48:48;;;;;;;3.83;1.07;;;0.90;99.90;;;;;;4981120;28;20290;-72
2023/04/03 05:51:51;;;;;;;4.90;1.70;;;1.00;99.90;;;;;;5063921;23;20073;-83
2023/04/03 05:54:32;;;;;;;3.08;0.95;;;1.00;99.90;;;;;;5012736;28;20141;-83
2023/04/03 05:56:58;;;;;;;3.03;1.20;;;1.10;99.90;;;;;;5006907;28;20049;-83
2023/04/03 05:59:26;;;;;;;7.28;1.27;;;1.20;99.90;;;;;;5019199;28;20477;-83
2023/04/03 06:01:55;;;;;;;4.20;1.23;;;1.20;99.90;;;;;;4977041;28;20077;-83
2023/04/03 06:04:21;;;;;;;3.38;1.40;;;1.10;99.90;;;;;;4983480;28;20035;-83
2023/04/03 06:07:17;;;;;;;4.80;1.37;;;1.10;99.90;;;;;;4988498;28;20046;-83
2023/04/03 06:09:58;;;;;;;4.78;1.40;;;1.20;99.90;;;;;;4986274;28;20284;-83
2023/04/03 06:12:29;;;;;;;4.25;1.40;;;1.20;99.90;;;;;;4969781;28;20043;-82
2023/04/03 06:15:11;;;;;;;2.97;1.40;;;1.30;99.90;;;;;;4986881;28;20129;-83
2023/04/03 06:17:40;;;;;;;5.30;1.50;;;1.40;99.90;;;;;;5001382;28;20030;-84
2023/04/03 06:20:41;;;;;;;;;;;;;;;;;;;;;
2023/04/03 06:23:17;;;;;;;3.90;1.40;;;1.40;99.90;;;;;;4984384;28;20045;-81
2023/04/03 06:25:47;;;;;;;9.50;2.03;;;1.50;99.90;;;;;;4980403;28;20052;-82
2023/04/03 06:28:20;;;;;;;4.18;1.27;;;1.50;99.90;;;;;;4984071;28;20040;-83
2023/04/03 06:30:48;;;;;;;5.18;1.30;;;1.60;99.90;;;;;;4990587;28;20477;-83
2023/04/03 06:33:14;;;;;;;5.87;2.33;;;1.60;99.90;;;;;;4995776;28;20226;-80
2023/04/03 06:35:42;;;;;;;4.27;1.37;;;1.70;99.90;;;;;;5006822;28;20404;-83
2023/04/03 06:38:26;;;;;;;7.07;1.33;;;1.70;99.90;;;;;;4997978;28;20034;-82
2023/04/03 06:40:55;;;;;;;2.63;1.35;;;1.70;99.90;;;;;;5010180;28;20068;-83
2023/04/03 06:43:26;;;;;;;4.57;1.55;;;1.80;99.90;;;;;;4971016;28;20414;-83
2023/04/03 06:46:02;;;;;;;4.50;1.73;;;1.80;99.90;;;;;;4987886;28;20037;-84
2023/04/03 06:48:44;;;;;;;5.78;1.48;;;1.90;99.90;;;;;;4985067;28;20057;-86
2023/04/03 06:51:21;;;;;;;;;;;1.90;99.90;;;;;;4971853;28;20065;-83
2023/04/03 06:53:53;;;;;;;2.95;1.50;;;2.00;99.90;;;;;;4992742;28;20459;-84
2023/04/03 06:56:22;;;;;;;4.38;1.70;;;2.00;99.90;;;;;;4975514;28;20050;-84
2023/04/03 06:58:51;;;;;;;4.03;1.50;;;2.10;99.90;;;;;;5010586;28;20042;-84
2023/04/03 07:01:19;;;;;;;4.35;1.98;;;2.20;99.90;;;;;;4971319;28;20050;-83
2023/04/03 07:03:51;;;;;;;4.22;1.50;;;2.20;99.90;;;;;;4979402;28;20094;-83
2023/04/03 07:06:18;;;;;;;6.00;1.95;;;2.30;99.90;;;;;;4992765;28;20054;-84
2023/04/03 07:08:45;;;;;;;9.77;1.50;;;2.30;99.90;;;;;;5013570;28;20038;-84
2023/04/03 07:11:11;;;;;;;;;;;2.40;99.90;;;;;;4987088;28;20494;-83
2023/04/03 07:13:37;;;;;;;4.35;1.35;;;2.50;99.90;;;;;;4990871;28;20019;-84
2023/04/03 07:16:05;;;;;;;4.00;1.25;;;2.50;99.90;;;;;;4981671;28;20038;-84
2023/04/03 07:18:32;;;;;;;7.68;1.40;;;2.60;99.90;;;;;;5000144;28;20251;-83
2023/04/03 07:20:58;;;;;;;5.97;1.63;;;2.60;99.90;;;;;;5012586;28;20498;-83
2023/04/03 07:23:26;;;;;;;3.93;1.40;;;2.70;99.90;;;;;;4992183;28;20062;-84
2023/04/03 07:25:55;;;;;;;7.60;1.30;;;2.80;99.90;;;;;;4974097;28;20042;-84
2023/04/03 07:28:29;;;;;;;7.10;1.85;;;2.80;99.90;;;;;;4993270;28;20046;-83
2023/04/03 07:31:07;;;;;;;5.22;1.90;;;3.00;99.90;;;;;;5005311;28;20197;-84
2023/04/03 07:33:42;;;;;;;5.13;1.13;;;3.10;99.90;;;;;;4991759;28;20042;-84
2023/04/03 07:36:20;;;;;;;3.45;1.00;;;3.00;99.90;;;;;;4990010;28;20042;-82
2023/04/03 07:38:45;;;;;;;2.20;1.02;;;3.10;99.90;;;;;;5004736;28;20042;-84
2023/04/03 07:41:17;;;;;;;2.07;1.03;;;3.20;99.90;;;;;;4990374;28;20105;-84
2023/04/03 07:43:43;;;;;;;4.65;1.17;;;3.30;99.90;;;;;;4977559;28;20117;-85
2023/04/03 07:46:24;;;;;;;5.55;1.83;;;3.40;99.90;;;;;;4987286;28;20039;-82
2023/04/03 07:49:24;;;;;;;2.67;1.00;;;3.50;99.90;;;;;;4973666;28;20293;-85
2023/04/03 07:51:50;;;;;;;5.55;1.13;;;3.60;99.90;;;;;;4999125;28;20285;-85
2023/04/03 07:54:26;;;;;;;4.32;1.35;;;3.60;99.90;;;;;;5001979;28;20136;-84
2023/04/03 07:57:14;;;;;;;4.15;1.60;;;3.70;99.90;;;;;;4979967;28;20375;-84
2023/04/03 07:59:54;;;;;;;5.57;1.25;;;3.70;99.90;;;;;;4984795;28;20053;-84
2023/04/03 08:02:30;;;;;;;3.22;1.42;;;3.90;99.90;;;;;;4988868;28;20452;-84
2023/04/03 08:05:30;;;;;;;3.85;1.00;;;3.90;99.90;;;;;;4970114;28;20473;-83
2023/04/03 08:08:47;;;;;;;6.75;1.52;;;4.10;99.90;;;;;;4989007;28;20419;-84
2023/04/03 08:12:11;;;;;;;4.32;1.30;;;4.20;99.90;;;;;;4969441;28;20089;-84
2023/04/03 08:14:53;;;;;;;;;;;;;;;;;;;;;
2023/04/03 08:17:53;;;;;;;6.97;0.93;;;4.30;99.90;;;;;;4986650;28;20173;-84
2023/04/03 08:20:21;;;;;;;1.90;0.90;;;4.50;99.90;;;;;;4967845;28;20081;-84
2023/04/03 08:23:06;;;;;;;3.30;0.73;;;4.60;99.90;;;;;;4990801;28;20130;-85
2023/04/03 08:29:18;;;;;;;2.80;0.90;;;4.80;99.90;;;;;;4967352;28;20089;-84
2023/04/03 08:32:25;;;;;;;2.88;0.77;;;4.90;99.90;;;;;;5008330;28;20044;-84
2023/04/03 08:35:17;;;;;;;3.50;0.70;;;5.10;99.90;;;;;;5003306;28;20050;-83
2023/04/03 08:40:44;;;;;;;4.07;1.42;;;5.10;99.90;;;;;;4954450;28;20125;-84
2023/04/03 08:43:39;;;;;;;2.47;0.90;;;5.30;99.90;;;;;;4981988;28;20057;-83
2023/04/03 08:46:22;;;;;;;;;;;;;;;;;;;;;
2023/04/03 08:48:57;;;;;;;3.83;0.70;;;5.40;99.90;;;;;;5002972;28;20053;-84
2023/04/03 08:55:06;;;;;;;;;;;;;;;;;;;;;
2023/04/03 08:57:57;;;;;;;1.75;0.55;;;5.70;99.90;;;;;;5007618;28;20151;-84
2023/04/03 09:00:58;;;;;;;3.67;0.80;;;5.80;99.90;;;;;;4965823;28;20544;-84
2023/04/03 09:03:40;;;;;;;2.72;0.63;;;5.90;99.90;;;;;;4947470;28;20590;-84
2023/04/03 09:06:32;;;;;;;2.92;0.40;;;6.00;99.90;;;;;;4994231;28;20430;-84
2023/04/03 09:09:43;;;;;;;3.47;0.70;;;6.20;99.90;;;;;;4988607;28;20108;-84
2023/04/03 09:12:26;;;;;;;4.18;0.98;;;6.30;99.90;;;;;;4985541;28;20085;-84
2023/04/03 09:18:17;;;;;;;2.45;0.90;;;6.60;99.90;;;;;;4983717;28;20136;-84
2023/04/03 09:21:16;;;;;;;1.27;0.63;;;6.70;99.90;;;;;;4966906;28;20141;-83
2023/04/03 09:24:00;;;;;;;2.17;0.57;;;6.80;99.90;;;;;;4971772;28;20090;-84
2023/04/03 09:27:06;;;;;;;;;;;;;;;;;;;;;
2023/04/03 09:30:14;;;;;;;1.52;0.60;;;7.10;99.90;;;;;;4993159;28;20054;-82
2023/04/03 09:32:46;;;;;;;2.28;0.73;;;7.30;99.90;;;;;;5003956;28;20048;-84
2023/04/03 09:35:40;;;;;;;3.05;0.60;;;7.40;99.90;;;;;;4989707;28;20054;-84
2023/04/03 09:38:26;;;;;;;2.65;0.70;;;7.50;99.90;;;;;;4974107;28;20118;-84
2023/04/03 09:41:32;;;;;;;;;;;;;;;;;;;;;
2023/04/03 09:44:20;;;;;;;2.03;0.65;;;7.80;99.90;;;;;;4996639;28;20108;-84
2023/04/03 09:46:48;;;;;;;2.38;0.65;;;7.90;99.90;;;;;;4986017;28;20053;-83
2023/04/03 09:49:19;;;;;;;1.85;0.50;;;8.00;99.90;;;;;;4970012;28;20513;-84
2023/04/03 09:51:45;;;;;;;3.58;0.82;;;8.00;99.90;;;;;;4975995;23;20037;-70
2023/04/03 09:54:32;;;;;;;2.65;0.50;;;8.20;99.90;;;;;;4996803;28;20048;-69
2023/04/03 09:57:06;;;;;;;3.45;0.70;;;8.40;99.60;;;;;;4999633;28;20050;-70
2023/04/03 09:59:32;;;;;;;3.30;0.60;;;8.50;99.70;;;;;;4965903;28;20061;-69
2023/04/03 10:02:22;;;;;;;1.98;0.70;;;8.60;99.10;;;;;;4997607;28;20484;-70
2023/04/03 10:04:48;;;;;;;2.67;0.77;;;8.80;98.30;;;;;;4981102;28;20145;-69
2023/04/03 10:07:35;;;;;;;2.33;0.47;;;8.90;97.10;;;;;;4976855;28;20544;-69
2023/04/03 10:10:18;;;;;;;1.45;0.43;;;8.90;95.10;;;;;;4989321;28;20066;-70
2023/04/03 10:12:44;;;;;;;2.63;0.47;;;9.10;95.00;;;;;;4979270;28;20054;-70
2023/04/03 10:15:20;;;;;;;1.42;0.40;;;9.20;93.10;;;;;;4983783;28;20189;-69
2023/04/03 10:17:53;;;;;;;2.13;0.50;;;9.30;90.90;;;;;;4965264;28;20049;-69
2023/04/03 10:20:42;;;;;;;3.20;0.70;;;9.40;89.00;;;;;;4981948;28;20804;-69
2023/04/03 10:23:23;;;;;;;1.20;0.47;;;9.50;90.10;;;;;;4997497;28;20113;-69
2023/04/03 10:26:07;;;;;;;5.60;0.70;;;9.60;90.20;;;;;;4983807;28;20046;-69
2023/04/03 10:28:52;;;;;;;0.93;0.35;;;9.60;87.60;;;;;;4976028;28;20046;-69
2023/04/03 10:31:23;;;;;;;4.28;0.43;;;9.60;87.50;;;;;;4984259;28;20500;-69
2023/04/03 10:33:52;;;;;;;1.55;0.70;;;9.80;84.80;;;;;;4980766;28;20072;-69
2023/04/03 10:36:41;;;;;;;1.00;0.40;;;9.80;81.10;;;;;;4984260;28;21326;-69
2023/04/03 10:39:26;;;;;;;4.57;0.73;;;10.00;80.90;;;;;;4973880;28;20902;-69
2023/04/03 10:41:58;;;;;;;0.88;0.40;;;10.10;81.70;;;;;;4995265;28;20108;-69
2023/04/03 10:44:47;;;;;;;1.48;0.55;;;10.20;80.00;;;;;;4979102;28;20104;-69
2023/04/03 10:47:33;;;;;;;1.55;0.68;;;10.30;80.00;;;;;;4986275;28;20192;-70
2023/04/03 10:50:01;;;;;;;1.00;0.40;;;10.40;76.50;;;;;;4982140;28;20047;-69
2023/04/03 10:52:51;;;;;;;2.13;0.55;;;10.50;75.10;;;;;;4984245;28;20558;-69
2023/04/03 10:55:26;;;;;;;5.35;0.85;;;10.50;71.00;;;;;;5002002;28;20126;-69
2023/04/03 10:57:56;;;;;;;0.68;0.30;;;10.60;73.50;;;;;;5007469;28;20230;-69
2023/04/03 11:00:41;;;;;;;1.23;0.30;;;10.60;73.90;;;;;;4999250;28;20389;-69
2023/04/03 11:03:24;;;;;;;1.73;0.43;;;10.70;72.40;;;;;;4979795;28;20096;-69
2023/04/03 11:05:53;;;;;;;2.10;0.20;;;10.80;72.60;;;;;;4992773;28;20050;-70
2023/04/03 11:08:34;;;;;;;1.90;0.50;;;10.80;71.80;;;;;;4991761;28;20053;-70
2023/04/03 11:11:09;;;;;;;1.42;0.52;;;10.80;68.20;;;;;;4987255;28;20085;-69
2023/04/03 11:13:56;;;;;;;1.52;0.47;;;10.80;68.40;;;;;;4983290;28;20038;-69
2023/04/03 11:16:26;;;;;;;1.65;0.80;;;10.90;70.50;;;;;;4981176;28;20096;-69
2023/04/03 11:19:03;;;;;;;0.95;0.50;;;10.90;68.10;;;;;;4985823;28;20045;-69
2023/04/03 11:21:31;;;;;;;;;;;10.90;67.50;;;;;;4984494;28;20045;-69
2023/04/03 11:23:59;;;;;;;1.00;0.40;;;11.00;63.90;;;;;;4983442;28;19921;-69
2023/04/03 11:26:30;;;;;;;0.90;0.35;;;11.10;68.70;;;;;;4976701;28;20478;-69
2023/04/03 11:29:14;;;;;;;4.72;0.60;;;11.30;68.80;;;;;;4999100;28;20044;-69
2023/04/03 11:32:13;;;;;;;1.08;0.40;;;11.40;66.50;;;;;;4979399;28;20072;-69
2023/04/03 11:34:49;;;;;;;0.98;0.40;;;11.50;66.40;;;;;;5004412;28;20513;-69
2023/04/03 11:37:34;;;;;;;1.00;0.20;;;11.50;68.40;;;;;;4983731;28;20045;-69
2023/04/03 11:40:22;;;;;;;1.98;0.63;;;11.50;65.80;;;;;;4999393;28;20093;-69
2023/04/03 11:42:52;;;;;;;0.22;0.15;;;11.50;65.80;;;;;;4998225;28;20045;-69
2023/04/03 11:45:26;;;;;;;1.70;0.40;;;11.60;66.00;;;;;;4976710;28;20610;-69
2023/04/03 11:48:19;;;;;;;0.30;0.20;;;11.50;63.80;;;;;;4999358;28;20131;-69
2023/04/03 11:53:12;;;;;;;1.25;0.45;;;11.70;64.50;;;;;;4965099;28;20040;-69
2023/04/03 11:55:47;;;;;;;2.27;0.50;;;11.80;63.40;;;;;;4984336;28;20050;-68
2023/04/03 11:58:18;;;;;;;1.60;0.57;;;11.70;60.00;;;;;;4973363;28;20105;-69
2023/04/03 12:00:44;;;;;;;1.10;0.35;;;11.70;61.90;;;;;;4957251;28;20328;-69
2023/04/03 12:05:53;;;;;;;0.98;0.50;;;11.90;58.60;;;;;;4964451;28;20041;-69
2023/04/03 12:08:32;;;;;;;1.08;0.43;;;11.90;60.90;;;;;;4964262;28;20649;-69
2023/04/03 12:11:12;;;;;;;3.05;0.50;;;11.90;60.30;;;;;;4970031;28;20467;-69
2023/04/03 12:13:56;;;;;;;1.10;0.35;;;11.90;58.40;;;;;;4977582;28;20050;-69
2023/04/03 12:16:41;;;;;;;1.70;0.55;;;11.90;59.10;;;;;;4956970;28;20050;-69
2023/04/03 12:19:43;;;;;;;3.67;0.60;;;11.90;59.30;;;;;;4964949;28;20389;-69
2023/04/03 12:22:14;;;;;;;1.50;0.52;;;11.90;58.60;;;;;;4965133;28;20058;-69
2023/04/03 12:24:46;;;;;;;1.92;0.38;;;12.00;59.00;;;;;;4958177;28;20231;-69
2023/04/03 12:27:21;;;;;;;2.20;0.57;;;12.10;58.80;;;;;;4964605;28;20070;-69
2023/04/03 12:30:31;;;;;;;2.17;0.80;;;12.20;57.40;;;;;;4968593;28;20070;-69
2023/04/03 12:33:31;;;;;;;1.35;0.40;;;12.40;59.70;;;;;;4962733;28;20460;-69
2023/04/03 12:36:19;;;;;;;2.17;0.70;;;12.50;56.00;;;;;;4972715;28;20122;-69
2023/04/03 12:39:01;;;;;;;1.90;0.80;;;12.60;58.70;;;;;;4959370;28;20075;-69
2023/04/03 12:41:35;;;;;;;2.05;0.80;;;12.70;56.40;;;;;;4955126;28;20059;-69
2023/04/03 12:44:25;;;;;;;1.23;0.50;;;12.70;56.70;;;;;;4976213;28;20043;-69
2023/04/03 12:46:52;;;;;;;1.48;0.50;;;12.70;57.00;;;;;;4962839;28;20479;-69
2023/04/03 12:49:38;;;;;;;1.15;0.70;;;12.90;58.00;;;;;;4969724;28;20042;-69
2023/04/03 12:52:18;;;;;;;1.30;0.57;;;13.00;55.00;;;;;;4964345;28;20078;-69
2023/04/03 12:54:46;;;;;;;2.05;0.88;;;12.90;56.90;;;;;;4962132;28;20038;-69
2023/04/03 12:57:21;;;;;;;4.35;0.60;;;12.90;56.70;;;;;;4962949;28;20148;-69
2023/04/03 12:59:47;;;;;;;1.58;0.50;;;12.90;56.30;;;;;;4966371;28;20117;-71
2023/04/03 13:02:34;;;;;;;0.93;0.45;;;12.80;56.60;;;;;;4967684;28;20555;-70
2023/04/03 13:05:08;;;;;;;1.10;0.30;;;12.90;55.90;;;;;;4957801;28;20134;-70
2023/04/03 13:07:38;;;;;;;3.17;0.60;;;12.90;54.90;;;;;;4953539;28;20073;-70
2023/04/03 13:10:07;;;;;;;3.22;1.05;;;12.80;55.30;;;;;;4947440;28;20122;-70
2023/04/03 13:12:34;;;;;;;1.75;0.52;;;12.80;56.10;;;;;;4951995;28;20054;-70
2023/04/03 13:15:12;;;;;;;1.95;0.63;;;12.90;55.70;;;;;;4963968;28;20054;-70
2023/04/03 13:17:43;;;;;;;3.05;0.52;;;13.00;54.50;;;;;;4967131;28;20534;-70
2023/04/03 13:20:27;;;;;;;2.58;0.50;;;12.90;55.00;;;;;;4966444;28;20070;-70
2023/04/03 13:23:18;;;;;;;4.43;0.90;;;13.00;55.70;;;;;;4959748;28;20065;-70
2023/04/03 13:25:45;;;;;;;2.50;0.40;;;13.00;52.60;;;;;;4973879;28;20145;-70
2023/04/03 13:28:19;;;;;;;1.90;0.80;;;13.20;56.10;;;;;;4960597;28;20043;-70
2023/04/03 13:30:59;;;;;;;2.53;0.77;;;13.20;54.00;;;;;;4964390;28;20049;-71
2023/04/03 13:33:27;;;;;;;1.33;0.50;;;13.30;53.10;;;;;;4960141;28;20093;-70
2023/04/03 13:36:04;;;;;;;4.20;0.80;;;13.30;55.10;;;;;;4971688;28;20105;-70
2023/04/03 13:38:32;;;;;;;1.77;0.45;;;13.40;54.80;;;;;;4963427;28;20039;-70
2023/04/03 13:41:02;;;;;;;0.80;0.40;;;13.40;54.20;;;;;;4970555;28;20555;-70
2023/04/03 13:43:30;;;;;;;0.93;0.38;;;13.30;52.90;;;;;;4965207;28;20054;-70
2023/04/03 13:46:10;;;;;;;2.45;0.55;;;13.20;53.50;;;;;;4961111;28;20119;-70
2023/04/03 13:48:47;;;;;;;3.53;0.90;;;13.20;53.40;;;;;;4962013;28;20121;-70
2023/04/03 13:51:22;;;;;;;1.75;0.50;;;13.20;51.70;;;;;;4961617;28;20050;-70
2023/04/03 13:53:58;;;;;;;4.88;0.80;;;13.10;52.60;;;;;;4961419;28;20046;-70